Terminal Aerodrome Forecast
Issued by NWS

Home | Current Version | Previous Version | Graphics & Text | Print | Product List | Glossary On
Versions: 1 2 3 4 5 6 7 8 9 10 11 12 13 14 15 16 17 18 19 20 21
000
FTUS43 KMPX 031024 AAB
TAFAXN
TAF AMD
KAXN 031024Z 0310/0406 12011KT 3SM BR OVC003
      TEMPO 0313/0314 6SM BR SCT005
     FM031400 13012G19KT P6SM SCT015=

USA.gov is the U.S. government's official web portal to all federal, state and local government web resources and services.